sensor_id;sensor_type;location;lat;lon;timestamp;temperature;humidity
21238;DHT22;10777;50.828;3.264;2022-09-03T00:00:26;20.80;99.90
21238;DHT22;10777;50.828;3.264;2022-09-03T00:03:01;20.90;99.90
21238;DHT22;10777;50.828;3.264;2022-09-03T00:05:50;21.20;99.90
21238;DHT22;10777;50.828;3.264;2022-09-03T00:08:26;21.50;99.90
21238;DHT22;10777;50.828;3.264;2022-09-03T00:11:28;21.20;99.90
21238;DHT22;10777;50.828;3.264;2022-09-03T00:13:48;21.10;99.90
21238;DHT22;10777;50.828;3.264;2022-09-03T00:16:17;21.20;99.90
21238;DHT22;10777;50.828;3.264;2022-09-03T00:18:51;20.90;99.90
21238;DHT22;10777;50.828;3.264;2022-09-03T00:21:40;20.80;99.90
21238;DHT22;10777;50.828;3.264;2022-09-03T00:24:12;20.80;99.90
21238;DHT22;10777;50.828;3.264;2022-09-03T00:26:41;20.90;99.90
21238;DHT22;10777;50.828;3.264;2022-09-03T00:29:14;20.90;99.90
21238;DHT22;10777;50.828;3.264;2022-09-03T00:31:46;21.10;99.90
21238;DHT22;10777;50.828;3.264;2022-09-03T00:37:07;21.40;99.90
21238;DHT22;10777;50.828;3.264;2022-09-03T00:39:35;21.20;99.90
21238;DHT22;10777;50.828;3.264;2022-09-03T00:42:17;21.20;99.90
21238;DHT22;10777;50.828;3.264;2022-09-03T00:45:15;20.90;99.90
21238;DHT22;10777;50.828;3.264;2022-09-03T00:50:52;21.00;99.90
21238;DHT22;10777;50.828;3.264;2022-09-03T00:53:33;21.00;99.90
21238;DHT22;10777;50.828;3.264;2022-09-03T00:56:24;20.90;99.90
21238;DHT22;10777;50.828;3.264;2022-09-03T00:59:22;21.10;99.90
21238;DHT22;10777;50.828;3.264;2022-09-03T01:05:10;21.10;99.90
21238;DHT22;10777;50.828;3.264;2022-09-03T01:07:53;21.20;99.90
21238;DHT22;10777;50.828;3.264;2022-09-03T01:19:39;21.10;99.90
21238;DHT22;10777;50.828;3.264;2022-09-03T01:28:34;20.80;99.90
21238;DHT22;10777;50.828;3.264;2022-09-03T01:34:24;20.90;99.90
21238;DHT22;10777;50.828;3.264;2022-09-03T01:40:09;21.20;99.90
21238;DHT22;10777;50.828;3.264;2022-09-03T01:43:08;21.20;99.90
21238;DHT22;10777;50.828;3.264;2022-09-03T01:45:58;21.30;99.90
21238;DHT22;10777;50.828;3.264;2022-09-03T01:49:01;21.20;99.90
21238;DHT22;10777;50.828;3.264;2022-09-03T01:51:30;21.10;99.90
21238;DHT22;10777;50.828;3.264;2022-09-03T01:54:15;21.20;99.90
21238;DHT22;10777;50.828;3.264;2022-09-03T01:57:23;20.90;99.90
21238;DHT22;10777;50.828;3.264;2022-09-03T02:00:11;20.90;99.90
21238;DHT22;10777;50.828;3.264;2022-09-03T02:02:40;20.70;99.90
21238;DHT22;10777;50.828;3.264;2022-09-03T02:05:10;20.70;99.90
21238;DHT22;10777;50.828;3.264;2022-09-03T02:07:43;20.80;99.90
21238;DHT22;10777;50.828;3.264;2022-09-03T02:10:13;21.20;99.90
21238;DHT22;10777;50.828;3.264;2022-09-03T02:15:28;21.20;99.90
21238;DHT22;10777;50.828;3.264;2022-09-03T02:17:59;21.00;99.90
21238;DHT22;10777;50.828;3.264;2022-09-03T02:20:27;21.00;99.90
21238;DHT22;10777;50.828;3.264;2022-09-03T02:22:55;21.10;99.90
21238;DHT22;10777;50.828;3.264;2022-09-03T02:25:25;21.30;99.90
21238;DHT22;10777;50.828;3.264;2022-09-03T02:27:54;21.00;99.90
21238;DHT22;10777;50.828;3.264;2022-09-03T02:30:20;21.00;99.90
21238;DHT22;10777;50.828;3.264;2022-09-03T02:32:45;20.80;99.90
21238;DHT22;10777;50.828;3.264;2022-09-03T02:35:12;20.90;99.90
21238;DHT22;10777;50.828;3.264;2022-09-03T02:37:37;20.70;99.90
21238;DHT22;10777;50.828;3.264;2022-09-03T02:40:03;20.50;99.90
21238;DHT22;10777;50.828;3.264;2022-09-03T02:42:33;20.60;99.90
21238;DHT22;10777;50.828;3.264;2022-09-03T02:45:15;20.70;99.90
21238;DHT22;10777;50.828;3.264;2022-09-03T02:47:43;20.70;99.90
21238;DHT22;10777;50.828;3.264;2022-09-03T02:50:09;21.00;99.90
21238;DHT22;10777;50.828;3.264;2022-09-03T02:52:35;20.90;99.90
21238;DHT22;10777;50.828;3.264;2022-09-03T02:55:00;20.40;99.90
21238;DHT22;10777;50.828;3.264;2022-09-03T02:57:26;20.30;99.90
21238;DHT22;10777;50.828;3.264;2022-09-03T02:59:52;20.30;99.90
21238;DHT22;10777;50.828;3.264;2022-09-03T03:02:18;20.40;99.90
21238;DHT22;10777;50.828;3.264;2022-09-03T03:04:44;20.60;99.90
21238;DHT22;10777;50.828;3.264;2022-09-03T03:07:09;20.70;99.90
21238;DHT22;10777;50.828;3.264;2022-09-03T03:09:35;20.80;99.90
21238;DHT22;10777;50.828;3.264;2022-09-03T03:12:01;20.80;99.90
21238;DHT22;10777;50.828;3.264;2022-09-03T03:14:27;20.50;99.90
21238;DHT22;10777;50.828;3.264;2022-09-03T03:16:52;20.40;99.90
21238;DHT22;10777;50.828;3.264;2022-09-03T03:19:18;20.50;99.90
21238;DHT22;10777;50.828;3.264;2022-09-03T03:21:44;20.60;99.90
21238;DHT22;10777;50.828;3.264;2022-09-03T03:24:09;20.50;99.90
21238;DHT22;10777;50.828;3.264;2022-09-03T03:26:35;20.50;99.90
21238;DHT22;10777;50.828;3.264;2022-09-03T03:29:01;20.40;99.90
21238;DHT22;10777;50.828;3.264;2022-09-03T03:31:30;20.50;99.90
21238;DHT22;10777;50.828;3.264;2022-09-03T03:33:59;20.50;99.90
21238;DHT22;10777;50.828;3.264;2022-09-03T03:36:27;20.60;99.90
21238;DHT22;10777;50.828;3.264;2022-09-03T03:38:55;20.90;99.90
21238;DHT22;10777;50.828;3.264;2022-09-03T03:41:23;20.90;99.90
21238;DHT22;10777;50.828;3.264;2022-09-03T03:44:01;20.90;99.90
21238;DHT22;10777;50.828;3.264;2022-09-03T03:46:31;20.70;99.90
21238;DHT22;10777;50.828;3.264;2022-09-03T03:48:57;20.60;99.90
21238;DHT22;10777;50.828;3.264;2022-09-03T03:51:24;20.50;99.90
21238;DHT22;10777;50.828;3.264;2022-09-03T03:53:54;20.30;99.90
21238;DHT22;10777;50.828;3.264;2022-09-03T03:56:20;20.40;99.90
21238;DHT22;10777;50.828;3.264;2022-09-03T03:58:46;20.30;99.90
21238;DHT22;10777;50.828;3.264;2022-09-03T04:01:16;20.40;99.90
21238;DHT22;10777;50.828;3.264;2022-09-03T04:03:43;20.60;99.90
21238;DHT22;10777;50.828;3.264;2022-09-03T04:06:12;20.70;99.90
21238;DHT22;10777;50.828;3.264;2022-09-03T04:08:40;20.40;99.90
21238;DHT22;10777;50.828;3.264;2022-09-03T04:11:09;20.50;99.90
21238;DHT22;10777;50.828;3.264;2022-09-03T04:13:38;20.60;99.90
21238;DHT22;10777;50.828;3.264;2022-09-03T04:16:06;20.70;99.90
21238;DHT22;10777;50.828;3.264;2022-09-03T04:21:03;20.50;99.90
21238;DHT22;10777;50.828;3.264;2022-09-03T04:23:30;20.00;99.90
21238;DHT22;10777;50.828;3.264;2022-09-03T04:25:56;20.00;99.90
21238;DHT22;10777;50.828;3.264;2022-09-03T04:28:22;19.90;99.90
21238;DHT22;10777;50.828;3.264;2022-09-03T04:30:48;19.80;99.90
21238;DHT22;10777;50.828;3.264;2022-09-03T04:33:14;19.80;99.90
21238;DHT22;10777;50.828;3.264;2022-09-03T04:35:39;19.80;99.90
21238;DHT22;10777;50.828;3.264;2022-09-03T04:38:06;19.90;99.90
21238;DHT22;10777;50.828;3.264;2022-09-03T04:40:32;20.10;99.90
21238;DHT22;10777;50.828;3.264;2022-09-03T04:42:58;20.20;99.90
21238;DHT22;10777;50.828;3.264;2022-09-03T04:45:25;20.30;99.90
21238;DHT22;10777;50.828;3.264;2022-09-03T04:48:00;20.20;99.90
21238;DHT22;10777;50.828;3.264;2022-09-03T04:50:26;20.00;99.90
21238;DHT22;10777;50.828;3.264;2022-09-03T04:52:54;19.80;99.90
21238;DHT22;10777;50.828;3.264;2022-09-03T04:55:22;19.90;99.90
21238;DHT22;10777;50.828;3.264;2022-09-03T04:57:48;19.60;99.90
21238;DHT22;10777;50.828;3.264;2022-09-03T05:00:14;19.50;99.90
21238;DHT22;10777;50.828;3.264;2022-09-03T05:02:43;19.60;99.90
21238;DHT22;10777;50.828;3.264;2022-09-03T05:05:11;19.60;99.90
21238;DHT22;10777;50.828;3.264;2022-09-03T05:07:37;19.60;99.90
21238;DHT22;10777;50.828;3.264;2022-09-03T05:10:07;19.80;99.90
21238;DHT22;10777;50.828;3.264;2022-09-03T05:12:34;19.90;99.90
21238;DHT22;10777;50.828;3.264;2022-09-03T05:14:59;20.00;99.90
21238;DHT22;10777;50.828;3.264;2022-09-03T05:17:26;20.10;99.90
21238;DHT22;10777;50.828;3.264;2022-09-03T05:19:52;20.30;99.90
21238;DHT22;10777;50.828;3.264;2022-09-03T05:22:18;20.30;99.90
21238;DHT22;10777;50.828;3.264;2022-09-03T05:24:46;20.20;99.90
21238;DHT22;10777;50.828;3.264;2022-09-03T05:27:15;20.00;99.90
21238;DHT22;10777;50.828;3.264;2022-09-03T05:29:43;19.80;99.90
21238;DHT22;10777;50.828;3.264;2022-09-03T05:32:10;19.80;99.90
21238;DHT22;10777;50.828;3.264;2022-09-03T05:34:37;19.60;99.90
21238;DHT22;10777;50.828;3.264;2022-09-03T05:37:02;19.60;99.90
21238;DHT22;10777;50.828;3.264;2022-09-03T05:39:28;19.80;99.90
21238;DHT22;10777;50.828;3.264;2022-09-03T05:41:54;20.00;99.90
21238;DHT22;10777;50.828;3.264;2022-09-03T05:44:19;20.00;99.90
21238;DHT22;10777;50.828;3.264;2022-09-03T05:46:47;20.10;99.90
21238;DHT22;10777;50.828;3.264;2022-09-03T05:49:13;20.30;99.90
21238;DHT22;10777;50.828;3.264;2022-09-03T05:51:39;20.40;99.90
21238;DHT22;10777;50.828;3.264;2022-09-03T05:54:04;20.70;99.90
21238;DHT22;10777;50.828;3.264;2022-09-03T05:56:32;20.70;99.90
21238;DHT22;10777;50.828;3.264;2022-09-03T05:59:01;20.80;99.90
21238;DHT22;10777;50.828;3.264;2022-09-03T06:01:33;20.60;99.90
21238;DHT22;10777;50.828;3.264;2022-09-03T06:04:03;20.50;99.90
21238;DHT22;10777;50.828;3.264;2022-09-03T06:06:32;20.30;99.90
21238;DHT22;10777;50.828;3.264;2022-09-03T06:09:01;20.30;99.90
21238;DHT22;10777;50.828;3.264;2022-09-03T06:11:27;20.20;99.90
21238;DHT22;10777;50.828;3.264;2022-09-03T06:13:55;20.50;99.90
21238;DHT22;10777;50.828;3.264;2022-09-03T06:16:21;20.40;99.90
21238;DHT22;10777;50.828;3.264;2022-09-03T06:18:47;20.40;99.90
21238;DHT22;10777;50.828;3.264;2022-09-03T06:21:13;20.40;99.90
21238;DHT22;10777;50.828;3.264;2022-09-03T06:23:40;20.10;99.90
21238;DHT22;10777;50.828;3.264;2022-09-03T06:26:10;19.90;99.90
21238;DHT22;10777;50.828;3.264;2022-09-03T06:28:38;20.00;99.90
21238;DHT22;10777;50.828;3.264;2022-09-03T06:31:05;20.10;99.90
21238;DHT22;10777;50.828;3.264;2022-09-03T06:33:33;20.20;99.90
21238;DHT22;10777;50.828;3.264;2022-09-03T06:36:00;20.30;99.90
21238;DHT22;10777;50.828;3.264;2022-09-03T06:38:29;20.20;99.90
21238;DHT22;10777;50.828;3.264;2022-09-03T06:40:58;20.20;99.90
21238;DHT22;10777;50.828;3.264;2022-09-03T06:43:28;20.30;99.90
21238;DHT22;10777;50.828;3.264;2022-09-03T06:45:55;20.20;99.90
21238;DHT22;10777;50.828;3.264;2022-09-03T06:48:22;20.40;99.90
21238;DHT22;10777;50.828;3.264;2022-09-03T06:51:05;20.30;99.90
21238;DHT22;10777;50.828;3.264;2022-09-03T06:53:33;20.30;99.90
21238;DHT22;10777;50.828;3.264;2022-09-03T06:56:02;20.30;99.90
21238;DHT22;10777;50.828;3.264;2022-09-03T06:58:31;20.40;99.90
21238;DHT22;10777;50.828;3.264;2022-09-03T07:01:01;20.50;99.90
21238;DHT22;10777;50.828;3.264;2022-09-03T07:03:28;20.60;99.90
21238;DHT22;10777;50.828;3.264;2022-09-03T07:05:53;20.70;99.90
21238;DHT22;10777;50.828;3.264;2022-09-03T07:08:24;20.90;99.90
21238;DHT22;10777;50.828;3.264;2022-09-03T07:10:51;20.70;99.90
21238;DHT22;10777;50.828;3.264;2022-09-03T07:13:16;20.80;99.90
21238;DHT22;10777;50.828;3.264;2022-09-03T07:15:43;20.80;99.90
21238;DHT22;10777;50.828;3.264;2022-09-03T07:18:08;20.70;99.90
21238;DHT22;10777;50.828;3.264;2022-09-03T07:20:34;20.80;99.90
21238;DHT22;10777;50.828;3.264;2022-09-03T07:23:00;21.10;99.90
21238;DHT22;10777;50.828;3.264;2022-09-03T07:25:26;20.90;99.90
21238;DHT22;10777;50.828;3.264;2022-09-03T07:27:52;20.90;99.90
21238;DHT22;10777;50.828;3.264;2022-09-03T07:30:18;20.90;99.90
21238;DHT22;10777;50.828;3.264;2022-09-03T07:32:45;20.90;99.90
21238;DHT22;10777;50.828;3.264;2022-09-03T07:35:12;21.00;99.90
21238;DHT22;10777;50.828;3.264;2022-09-03T07:37:42;20.90;99.90
21238;DHT22;10777;50.828;3.264;2022-09-03T07:40:09;21.00;99.90
21238;DHT22;10777;50.828;3.264;2022-09-03T07:42:35;20.70;99.90
21238;DHT22;10777;50.828;3.264;2022-09-03T07:45:05;21.00;99.90
21238;DHT22;10777;50.828;3.264;2022-09-03T07:47:34;21.00;99.90
21238;DHT22;10777;50.828;3.264;2022-09-03T07:50:00;21.00;99.90
21238;DHT22;10777;50.828;3.264;2022-09-03T07:52:27;21.10;99.90
21238;DHT22;10777;50.828;3.264;2022-09-03T07:54:53;21.20;99.90
21238;DHT22;10777;50.828;3.264;2022-09-03T07:57:19;21.20;99.90
21238;DHT22;10777;50.828;3.264;2022-09-03T07:59:44;21.10;99.90
21238;DHT22;10777;50.828;3.264;2022-09-03T08:02:10;21.30;99.90
21238;DHT22;10777;50.828;3.264;2022-09-03T08:04:35;21.10;99.90
21238;DHT22;10777;50.828;3.264;2022-09-03T08:07:02;21.30;99.90
21238;DHT22;10777;50.828;3.264;2022-09-03T08:09:29;21.40;99.90
21238;DHT22;10777;50.828;3.264;2022-09-03T08:11:57;21.40;99.90
21238;DHT22;10777;50.828;3.264;2022-09-03T08:14:22;21.30;99.90
21238;DHT22;10777;50.828;3.264;2022-09-03T08:16:48;21.50;99.90
21238;DHT22;10777;50.828;3.264;2022-09-03T08:19:15;21.30;99.90
21238;DHT22;10777;50.828;3.264;2022-09-03T08:21:43;21.50;99.90
21238;DHT22;10777;50.828;3.264;2022-09-03T08:24:10;21.60;99.90
21238;DHT22;10777;50.828;3.264;2022-09-03T08:26:38;21.60;99.90
21238;DHT22;10777;50.828;3.264;2022-09-03T08:29:06;21.80;99.90
21238;DHT22;10777;50.828;3.264;2022-09-03T08:31:32;22.00;99.90
21238;DHT22;10777;50.828;3.264;2022-09-03T08:34:00;22.30;99.90
21238;DHT22;10777;50.828;3.264;2022-09-03T08:36:32;22.50;99.90
21238;DHT22;10777;50.828;3.264;2022-09-03T08:38:59;22.60;99.90
21238;DHT22;10777;50.828;3.264;2022-09-03T08:42:01;22.50;99.90
21238;DHT22;10777;50.828;3.264;2022-09-03T08:44:44;22.60;99.90
21238;DHT22;10777;50.828;3.264;2022-09-03T08:47:38;22.80;99.90
21238;DHT22;10777;50.828;3.264;2022-09-03T08:50:24;23.10;99.90
21238;DHT22;10777;50.828;3.264;2022-09-03T08:53:13;23.30;99.90
21238;DHT22;10777;50.828;3.264;2022-09-03T08:55:49;23.30;99.90
21238;DHT22;10777;50.828;3.264;2022-09-03T08:58:18;23.30;99.90
21238;DHT22;10777;50.828;3.264;2022-09-03T09:04:11;23.60;99.90
21238;DHT22;10777;50.828;3.264;2022-09-03T09:06:52;23.40;99.90
21238;DHT22;10777;50.828;3.264;2022-09-03T09:09:45;23.30;99.90
21238;DHT22;10777;50.828;3.264;2022-09-03T09:12:28;23.10;99.90
21238;DHT22;10777;50.828;3.264;2022-09-03T09:15:24;23.20;99.90
21238;DHT22;10777;50.828;3.264;2022-09-03T09:18:05;23.30;99.90
21238;DHT22;10777;50.828;3.264;2022-09-03T09:20:43;23.40;99.90
21238;DHT22;10777;50.828;3.264;2022-09-03T09:23:15;23.70;99.90
21238;DHT22;10777;50.828;3.264;2022-09-03T09:25:50;23.70;99.90
21238;DHT22;10777;50.828;3.264;2022-09-03T09:28:21;23.70;99.90
21238;DHT22;10777;50.828;3.264;2022-09-03T09:30:48;23.70;99.90
21238;DHT22;10777;50.828;3.264;2022-09-03T09:33:15;23.80;99.90
21238;DHT22;10777;50.828;3.264;2022-09-03T09:35:43;23.90;99.90
21238;DHT22;10777;50.828;3.264;2022-09-03T09:38:10;24.00;99.90
21238;DHT22;10777;50.828;3.264;2022-09-03T09:40:39;24.20;99.90
21238;DHT22;10777;50.828;3.264;2022-09-03T09:43:12;24.40;99.90
21238;DHT22;10777;50.828;3.264;2022-09-03T09:45:40;24.30;99.90
21238;DHT22;10777;50.828;3.264;2022-09-03T09:48:22;24.40;99.90
21238;DHT22;10777;50.828;3.264;2022-09-03T09:51:08;24.50;99.90
21238;DHT22;10777;50.828;3.264;2022-09-03T09:53:35;24.50;99.90
21238;DHT22;10777;50.828;3.264;2022-09-03T09:56:01;24.40;99.90
21238;DHT22;10777;50.828;3.264;2022-09-03T09:58:28;24.20;99.90
21238;DHT22;10777;50.828;3.264;2022-09-03T10:01:05;24.20;99.90
21238;DHT22;10777;50.828;3.264;2022-09-03T10:03:47;24.40;99.90
21238;DHT22;10777;50.828;3.264;2022-09-03T10:06:14;24.40;99.90
21238;DHT22;10777;50.828;3.264;2022-09-03T10:09:06;24.50;99.90
21238;DHT22;10777;50.828;3.264;2022-09-03T10:11:34;24.40;99.90
21238;DHT22;10777;50.828;3.264;2022-09-03T10:14:12;24.30;99.90
21238;DHT22;10777;50.828;3.264;2022-09-03T10:16:44;24.30;99.90
21238;DHT22;10777;50.828;3.264;2022-09-03T10:19:17;24.50;99.90
21238;DHT22;10777;50.828;3.264;2022-09-03T10:27:25;24.70;99.90
21238;DHT22;10777;50.828;3.264;2022-09-03T10:29:52;24.80;99.90
21238;DHT22;10777;50.828;3.264;2022-09-03T10:35:29;24.90;99.90
21238;DHT22;10777;50.828;3.264;2022-09-03T10:38:26;24.80;99.90
21238;DHT22;10777;50.828;3.264;2022-09-03T10:41:19;24.60;99.90
21238;DHT22;10777;50.828;3.264;2022-09-03T10:47:00;25.00;99.90
21238;DHT22;10777;50.828;3.264;2022-09-03T10:49:43;24.60;99.90
21238;DHT22;10777;50.828;3.264;2022-09-03T10:52:26;24.90;99.90
21238;DHT22;10777;50.828;3.264;2022-09-03T10:55:04;25.10;99.90
21238;DHT22;10777;50.828;3.264;2022-09-03T10:57:47;25.20;99.90
21238;DHT22;10777;50.828;3.264;2022-09-03T11:00:16;25.30;99.90
21238;DHT22;10777;50.828;3.264;2022-09-03T11:05:42;25.70;99.90
21238;DHT22;10777;50.828;3.264;2022-09-03T11:08:20;25.50;99.90
21238;DHT22;10777;50.828;3.264;2022-09-03T11:10:52;25.50;99.90
21238;DHT22;10777;50.828;3.264;2022-09-03T11:13:24;25.50;99.90
21238;DHT22;10777;50.828;3.264;2022-09-03T11:16:05;25.40;99.90
21238;DHT22;10777;50.828;3.264;2022-09-03T11:18:43;25.10;99.90
21238;DHT22;10777;50.828;3.264;2022-09-03T11:21:13;24.60;99.90
21238;DHT22;10777;50.828;3.264;2022-09-03T11:23:43;25.20;99.90
21238;DHT22;10777;50.828;3.264;2022-09-03T11:26:13;25.50;99.90
21238;DHT22;10777;50.828;3.264;2022-09-03T11:29:01;25.60;99.90
21238;DHT22;10777;50.828;3.264;2022-09-03T11:31:55;26.00;99.90
21238;DHT22;10777;50.828;3.264;2022-09-03T11:34:30;26.30;99.90
21238;DHT22;10777;50.828;3.264;2022-09-03T11:37:19;26.50;99.90
21238;DHT22;10777;50.828;3.264;2022-09-03T11:42:40;26.80;99.90
21238;DHT22;10777;50.828;3.264;2022-09-03T11:45:35;26.90;99.90
21238;DHT22;10777;50.828;3.264;2022-09-03T11:48:17;27.00;99.90
21238;DHT22;10777;50.828;3.264;2022-09-03T11:50:52;26.70;99.90
21238;DHT22;10777;50.828;3.264;2022-09-03T11:53:33;26.70;99.90
21238;DHT22;10777;50.828;3.264;2022-09-03T11:56:15;26.90;99.90
21238;DHT22;10777;50.828;3.264;2022-09-03T11:58:42;27.20;99.90
21238;DHT22;10777;50.828;3.264;2022-09-03T12:01:11;26.90;99.90
21238;DHT22;10777;50.828;3.264;2022-09-03T12:03:45;26.60;99.90
21238;DHT22;10777;50.828;3.264;2022-09-03T12:09:23;26.70;99.90
21238;DHT22;10777;50.828;3.264;2022-09-03T12:12:27;26.80;99.90
21238;DHT22;10777;50.828;3.264;2022-09-03T12:15:08;26.70;99.90
21238;DHT22;10777;50.828;3.264;2022-09-03T12:17:55;26.80;99.90
21238;DHT22;10777;50.828;3.264;2022-09-03T12:20:42;27.10;99.90
21238;DHT22;10777;50.828;3.264;2022-09-03T12:23:31;26.90;99.90
21238;DHT22;10777;50.828;3.264;2022-09-03T12:26:16;27.30;99.90
21238;DHT22;10777;50.828;3.264;2022-09-03T12:28:46;27.40;99.90
21238;DHT22;10777;50.828;3.264;2022-09-03T12:31:17;27.50;99.90
21238;DHT22;10777;50.828;3.264;2022-09-03T12:33:50;27.50;99.90
21238;DHT22;10777;50.828;3.264;2022-09-03T12:36:19;27.80;99.90
21238;DHT22;10777;50.828;3.264;2022-09-03T12:38:45;27.70;99.90
21238;DHT22;10777;50.828;3.264;2022-09-03T12:41:29;27.70;99.90
21238;DHT22;10777;50.828;3.264;2022-09-03T12:43:57;27.70;99.90
21238;DHT22;10777;50.828;3.264;2022-09-03T12:46:27;28.20;99.90
21238;DHT22;10777;50.828;3.264;2022-09-03T12:48:56;28.70;99.90
21238;DHT22;10777;50.828;3.264;2022-09-03T12:51:23;28.60;99.90
21238;DHT22;10777;50.828;3.264;2022-09-03T12:53:50;28.60;99.90
21238;DHT22;10777;50.828;3.264;2022-09-03T12:56:18;28.50;99.90
21238;DHT22;10777;50.828;3.264;2022-09-03T12:58:54;28.20;99.90
21238;DHT22;10777;50.828;3.264;2022-09-03T13:01:26;27.80;99.90
21238;DHT22;10777;50.828;3.264;2022-09-03T13:04:02;27.70;99.90
21238;DHT22;10777;50.828;3.264;2022-09-03T13:06:34;27.70;99.90
21238;DHT22;10777;50.828;3.264;2022-09-03T13:09:07;27.10;99.90
21238;DHT22;10777;50.828;3.264;2022-09-03T13:11:34;27.50;99.90
21238;DHT22;10777;50.828;3.264;2022-09-03T13:14:06;27.70;99.90
21238;DHT22;10777;50.828;3.264;2022-09-03T13:16:59;27.60;99.90
21238;DHT22;10777;50.828;3.264;2022-09-03T13:22:57;27.50;99.90
21238;DHT22;10777;50.828;3.264;2022-09-03T13:25:49;27.40;99.90
21238;DHT22;10777;50.828;3.264;2022-09-03T13:31:33;27.60;99.90
21238;DHT22;10777;50.828;3.264;2022-09-03T13:34:22;27.50;99.90
21238;DHT22;10777;50.828;3.264;2022-09-03T13:37:01;27.50;99.90
21238;DHT22;10777;50.828;3.264;2022-09-03T13:39:36;27.30;99.90
21238;DHT22;10777;50.828;3.264;2022-09-03T13:42:26;27.10;99.90
21238;DHT22;10777;50.828;3.264;2022-09-03T13:45:03;27.10;99.90
21238;DHT22;10777;50.828;3.264;2022-09-03T13:47:41;27.00;99.90
21238;DHT22;10777;50.828;3.264;2022-09-03T13:50:33;26.90;99.90
21238;DHT22;10777;50.828;3.264;2022-09-03T13:53:13;26.50;99.90
21238;DHT22;10777;50.828;3.264;2022-09-03T13:56:03;26.30;99.90
21238;DHT22;10777;50.828;3.264;2022-09-03T13:58:36;26.20;99.90
21238;DHT22;10777;50.828;3.264;2022-09-03T14:04:32;26.40;99.90
21238;DHT22;10777;50.828;3.264;2022-09-03T14:07:05;26.40;99.90
21238;DHT22;10777;50.828;3.264;2022-09-03T14:09:41;26.60;99.90
21238;DHT22;10777;50.828;3.264;2022-09-03T14:12:18;26.50;99.90
21238;DHT22;10777;50.828;3.264;2022-09-03T14:14:57;26.50;99.90
21238;DHT22;10777;50.828;3.264;2022-09-03T14:17:47;26.50;99.90
21238;DHT22;10777;50.828;3.264;2022-09-03T14:20:23;26.60;99.90
21238;DHT22;10777;50.828;3.264;2022-09-03T14:25:37;27.00;99.90
21238;DHT22;10777;50.828;3.264;2022-09-03T14:28:17;27.00;99.90
21238;DHT22;10777;50.828;3.264;2022-09-03T14:30:54;27.20;99.90
21238;DHT22;10777;50.828;3.264;2022-09-03T14:33:55;26.90;99.90
21238;DHT22;10777;50.828;3.264;2022-09-03T14:39:54;26.80;99.90
21238;DHT22;10777;50.828;3.264;2022-09-03T14:45:43;26.90;99.90
21238;DHT22;10777;50.828;3.264;2022-09-03T14:51:59;27.10;99.90
21238;DHT22;10777;50.828;3.264;2022-09-03T14:54:58;26.90;99.90
21238;DHT22;10777;50.828;3.264;2022-09-03T14:57:39;26.90;99.90
21238;DHT22;10777;50.828;3.264;2022-09-03T15:00:18;26.80;99.90
21238;DHT22;10777;50.828;3.264;2022-09-03T15:06:21;27.20;99.90
21238;DHT22;10777;50.828;3.264;2022-09-03T15:08:54;27.30;99.90
21238;DHT22;10777;50.828;3.264;2022-09-03T15:11:29;27.60;99.90
21238;DHT22;10777;50.828;3.264;2022-09-03T15:14:11;28.00;99.90
21238;DHT22;10777;50.828;3.264;2022-09-03T15:16:59;28.10;99.90
21238;DHT22;10777;50.828;3.264;2022-09-03T15:26:03;27.90;99.90
21238;DHT22;10777;50.828;3.264;2022-09-03T15:28:55;27.80;99.90
21238;DHT22;10777;50.828;3.264;2022-09-03T15:31:51;27.70;99.90
21238;DHT22;10777;50.828;3.264;2022-09-03T15:37:24;29.90;99.90
21238;DHT22;10777;50.828;3.264;2022-09-03T15:40:04;30.50;99.90
21238;DHT22;10777;50.828;3.264;2022-09-03T15:42:31;30.40;99.90
21238;DHT22;10777;50.828;3.264;2022-09-03T15:45:06;30.00;99.90
21238;DHT22;10777;50.828;3.264;2022-09-03T15:47:53;29.60;99.90
21238;DHT22;10777;50.828;3.264;2022-09-03T15:50:31;30.00;99.90
21238;DHT22;10777;50.828;3.264;2022-09-03T15:59:00;32.90;99.90
21238;DHT22;10777;50.828;3.264;2022-09-03T16:04:26;34.50;99.90
21238;DHT22;10777;50.828;3.264;2022-09-03T16:07:23;33.30;99.90
21238;DHT22;10777;50.828;3.264;2022-09-03T16:10:12;33.10;99.90
21238;DHT22;10777;50.828;3.264;2022-09-03T16:13:05;32.90;99.90
21238;DHT22;10777;50.828;3.264;2022-09-03T16:15:47;32.00;99.90
21238;DHT22;10777;50.828;3.264;2022-09-03T16:18:27;31.20;99.90
21238;DHT22;10777;50.828;3.264;2022-09-03T16:21:01;30.40;99.90
21238;DHT22;10777;50.828;3.264;2022-09-03T16:23:57;29.70;99.90
21238;DHT22;10777;50.828;3.264;2022-09-03T16:26:34;29.00;99.90
21238;DHT22;10777;50.828;3.264;2022-09-03T16:29:24;28.50;99.90
21238;DHT22;10777;50.828;3.264;2022-09-03T16:32:24;28.40;99.90
21238;DHT22;10777;50.828;3.264;2022-09-03T16:35:07;28.10;99.90
21238;DHT22;10777;50.828;3.264;2022-09-03T16:40:40;27.50;99.90
21238;DHT22;10777;50.828;3.264;2022-09-03T16:46:22;27.40;99.90
21238;DHT22;10777;50.828;3.264;2022-09-03T16:49:08;27.20;99.90
21238;DHT22;10777;50.828;3.264;2022-09-03T16:51:49;27.20;99.90
21238;DHT22;10777;50.828;3.264;2022-09-03T16:57:34;26.90;99.90
21238;DHT22;10777;50.828;3.264;2022-09-03T17:00:10;26.70;99.90
21238;DHT22;10777;50.828;3.264;2022-09-03T17:02:59;26.60;99.90
21238;DHT22;10777;50.828;3.264;2022-09-03T17:08:43;26.50;99.90
21238;DHT22;10777;50.828;3.264;2022-09-03T17:11:34;26.60;99.90
21238;DHT22;10777;50.828;3.264;2022-09-03T17:14:33;26.70;99.90
21238;DHT22;10777;50.828;3.264;2022-09-03T17:20:17;26.70;99.90
21238;DHT22;10777;50.828;3.264;2022-09-03T17:23:13;26.70;99.90
21238;DHT22;10777;50.828;3.264;2022-09-03T17:26:06;26.70;99.90
21238;DHT22;10777;50.828;3.264;2022-09-03T17:29:01;26.40;99.90
21238;DHT22;10777;50.828;3.264;2022-09-03T17:31:55;26.40;99.90
21238;DHT22;10777;50.828;3.264;2022-09-03T17:34:35;26.40;99.90
21238;DHT22;10777;50.828;3.264;2022-09-03T17:40:25;26.40;99.90
21238;DHT22;10777;50.828;3.264;2022-09-03T17:43:18;26.50;99.90
21238;DHT22;10777;50.828;3.264;2022-09-03T17:46:12;26.20;99.90
21238;DHT22;10777;50.828;3.264;2022-09-03T17:49:01;26.10;99.90
21238;DHT22;10777;50.828;3.264;2022-09-03T17:51:43;25.80;99.90
21238;DHT22;10777;50.828;3.264;2022-09-03T17:54:20;25.60;99.90
21238;DHT22;10777;50.828;3.264;2022-09-03T17:57:12;25.10;99.90
21238;DHT22;10777;50.828;3.264;2022-09-03T18:00:08;25.00;99.90
21238;DHT22;10777;50.828;3.264;2022-09-03T18:02:49;25.10;99.90
21238;DHT22;10777;50.828;3.264;2022-09-03T18:05:20;25.10;99.90
21238;DHT22;10777;50.828;3.264;2022-09-03T18:11:09;25.10;99.90
21238;DHT22;10777;50.828;3.264;2022-09-03T18:13:59;24.70;99.90
21238;DHT22;10777;50.828;3.264;2022-09-03T18:16:31;24.70;99.90
21238;DHT22;10777;50.828;3.264;2022-09-03T18:19:01;24.90;99.90
21238;DHT22;10777;50.828;3.264;2022-09-03T18:21:34;24.90;99.90